createdAt,value
2022-10-17T00:01:10.633Z,12.59
2022-10-17T00:03:40.309Z,12.58
2022-10-17T00:06:12.608Z,12.60
2022-10-17T00:08:41.535Z,12.63
2022-10-17T00:11:18.754Z,12.65
2022-10-17T00:13:48.261Z,12.66
2022-10-17T00:16:24.161Z,12.65
2022-10-17T00:18:52.521Z,12.63
2022-10-17T00:21:22.011Z,12.60
2022-10-17T00:23:50.949Z,12.57
2022-10-17T00:26:19.592Z,12.55
2022-10-17T00:28:49.001Z,12.53
2022-10-17T00:31:19.119Z,12.52
2022-10-17T00:33:47.930Z,12.48
2022-10-17T00:36:22.832Z,12.46
2022-10-17T00:38:54.422Z,12.45
2022-10-17T00:41:30.127Z,12.44
2022-10-17T00:44:01.795Z,12.44
2022-10-17T00:46:35.649Z,12.42
2022-10-17T00:49:08.292Z,12.39
2022-10-17T00:51:59.083Z,12.35
2022-10-17T00:54:53.994Z,12.30
2022-10-17T00:57:22.461Z,12.25
2022-10-17T00:59:54.807Z,12.19
2022-10-17T01:02:24.659Z,12.15
2022-10-17T01:04:55.847Z,12.12
2022-10-17T01:07:23.992Z,12.04
2022-10-17T01:09:52.319Z,12.01
2022-10-17T01:12:27.485Z,11.97
2022-10-17T01:15:14.495Z,11.92
2022-10-17T01:18:01.377Z,11.88
2022-10-17T01:20:48.322Z,11.88
2022-10-17T01:23:44.245Z,11.87
2022-10-17T01:26:31.333Z,11.87
2022-10-17T01:29:18.322Z,11.86
2022-10-17T01:31:59.481Z,11.87
2022-10-17T01:34:36.076Z,11.88
2022-10-17T01:37:07.017Z,11.85
2022-10-17T01:39:59.075Z,11.83
2022-10-17T01:42:33.075Z,11.81
2022-10-17T01:45:11.775Z,11.78
2022-10-17T01:47:42.177Z,11.77
2022-10-17T01:50:31.450Z,11.78
2022-10-17T01:53:08.734Z,11.77
2022-10-17T01:55:41.140Z,11.75
2022-10-17T01:58:32.415Z,11.75
2022-10-17T02:05:41.523Z,11.76
2022-10-17T02:08:11.774Z,11.77
2022-10-17T02:10:46.771Z,11.77
2022-10-17T02:13:30.021Z,11.74
2022-10-17T02:16:16.487Z,11.73
2022-10-17T02:19:12.784Z,11.73
2022-10-17T02:21:55.660Z,11.73
2022-10-17T02:24:42.355Z,11.74
2022-10-17T02:27:16.634Z,11.75
2022-10-17T02:29:50.443Z,11.75
2022-10-17T02:32:28.254Z,11.76
2022-10-17T02:34:58.464Z,11.76
2022-10-17T02:37:30.692Z,11.78
2022-10-17T02:40:01.257Z,11.77
2022-10-17T02:42:31.236Z,11.78
2022-10-17T02:45:01.450Z,11.78
2022-10-17T02:47:36.758Z,11.78
2022-10-17T02:50:05.406Z,11.77
2022-10-17T02:52:52.511Z,11.76
2022-10-17T02:55:33.705Z,11.76
2022-10-17T02:58:11.861Z,11.75
2022-10-17T03:00:41.257Z,11.77
2022-10-17T03:03:21.624Z,11.79
2022-10-17T03:05:49.876Z,11.80
2022-10-17T03:08:18.629Z,11.82
2022-10-17T03:10:46.870Z,11.82
2022-10-17T03:13:15.912Z,11.81
2022-10-17T03:15:44.073Z,11.79
2022-10-17T03:18:12.364Z,11.76
2022-10-17T03:20:40.346Z,11.72
2022-10-17T03:23:08.460Z,11.67
2022-10-17T03:25:37.588Z,11.60
2022-10-17T03:28:06.428Z,11.55
2022-10-17T03:30:34.590Z,11.49
2022-10-17T03:33:02.581Z,11.47
2022-10-17T03:35:30.645Z,11.47
2022-10-17T03:38:00.046Z,11.45
2022-10-17T03:40:28.339Z,11.42
2022-10-17T03:42:57.243Z,11.37
2022-10-17T03:45:25.426Z,11.32
2022-10-17T03:47:54.078Z,11.27
2022-10-17T03:50:22.127Z,11.23
2022-10-17T03:52:50.338Z,11.24
2022-10-17T03:55:18.410Z,11.24
2022-10-17T03:57:47.081Z,11.27
2022-10-17T04:00:15.833Z,11.30
2022-10-17T04:02:45.054Z,11.32
2022-10-17T04:05:18.137Z,11.35
2022-10-17T04:07:47.326Z,11.32
2022-10-17T04:10:16.201Z,11.30
2022-10-17T04:12:44.641Z,11.28
2022-10-17T04:15:13.207Z,11.26
2022-10-17T04:17:41.535Z,11.23
2022-10-17T04:20:10.665Z,11.21
2022-10-17T04:22:38.765Z,11.16
2022-10-17T04:25:06.994Z,11.14
2022-10-17T04:27:37.566Z,11.12
2022-10-17T04:30:05.999Z,11.10
2022-10-17T04:32:39.196Z,11.04
2022-10-17T04:35:21.137Z,10.99
2022-10-17T04:37:53.187Z,10.91
2022-10-17T04:40:21.709Z,10.86
2022-10-17T04:42:50.224Z,10.84
2022-10-17T04:45:20.527Z,10.83
2022-10-17T04:47:49.450Z,10.84
2022-10-17T04:50:17.480Z,10.85
2022-10-17T04:53:01.577Z,10.89
2022-10-17T04:55:29.592Z,10.91
2022-10-17T04:57:58.032Z,10.93
2022-10-17T05:00:26.317Z,10.94
2022-10-17T05:03:02.180Z,10.93
2022-10-17T05:05:31.046Z,10.91
2022-10-17T05:07:59.209Z,10.88
2022-10-17T05:10:37.232Z,10.85
2022-10-17T05:13:06.273Z,10.81
2022-10-17T05:15:35.393Z,10.79
2022-10-17T05:18:04.822Z,10.78
2022-10-17T05:20:33.430Z,10.78
2022-10-17T05:23:02.274Z,10.77
2022-10-17T05:25:34.662Z,10.76
2022-10-17T05:28:02.728Z,10.78
2022-10-17T05:30:35.179Z,10.84
2022-10-17T05:33:06.277Z,10.91
2022-10-17T05:35:35.339Z,10.94
2022-10-17T05:38:03.526Z,10.99
2022-10-17T05:40:32.323Z,11.02
2022-10-17T05:43:00.424Z,11.07
2022-10-17T05:45:28.492Z,11.13
2022-10-17T05:47:57.662Z,11.19
2022-10-17T05:50:25.917Z,11.27
2022-10-17T05:53:04.069Z,11.33
2022-10-17T05:55:33.259Z,11.42
2022-10-17T05:58:01.985Z,11.50
2022-10-17T06:00:33.366Z,11.58
2022-10-17T06:03:02.230Z,11.69
2022-10-17T06:05:30.448Z,11.80
2022-10-17T06:08:01.822Z,11.89
2022-10-17T06:10:32.009Z,12.00
2022-10-17T06:13:00.668Z,12.12
2022-10-17T06:15:28.789Z,12.24
2022-10-17T06:18:02.654Z,12.38
2022-10-17T06:20:30.613Z,12.50
2022-10-17T06:22:59.626Z,12.62
2022-10-17T06:25:43.736Z,12.77
2022-10-17T06:28:12.839Z,12.89
2022-10-17T06:30:41.598Z,13.02
2022-10-17T06:33:10.047Z,13.13
2022-10-17T06:35:38.123Z,13.22
2022-10-17T06:38:06.571Z,13.32
2022-10-17T06:40:36.132Z,13.44
2022-10-17T06:43:04.116Z,13.56
2022-10-17T06:48:35.382Z,13.83
2022-10-17T06:51:15.424Z,13.95
2022-10-17T06:53:50.485Z,14.02
2022-10-17T06:56:51.101Z,14.10
2022-10-17T06:59:28.156Z,14.15
2022-10-17T07:02:02.968Z,14.19
2022-10-17T07:04:31.592Z,14.26
2022-10-17T07:07:03.101Z,14.35
2022-10-17T07:09:33.074Z,14.45
2022-10-17T07:12:01.092Z,14.54
2022-10-17T07:14:32.195Z,14.62
2022-10-17T07:17:02.217Z,14.72
2022-10-17T07:19:33.110Z,14.80
2022-10-17T07:22:01.076Z,14.85
2022-10-17T07:24:29.465Z,14.94
2022-10-17T07:27:15.964Z,15.04
2022-10-17T07:29:44.042Z,15.13
2022-10-17T07:32:18.969Z,15.23
2022-10-17T07:34:47.055Z,15.34
2022-10-17T07:37:15.255Z,15.41
2022-10-17T07:39:49.605Z,15.48
2022-10-17T07:42:17.703Z,15.57
2022-10-17T07:44:47.551Z,15.67
2022-10-17T07:47:16.137Z,15.77
2022-10-17T07:49:46.752Z,15.87
2022-10-17T07:52:15.924Z,15.96
2022-10-17T07:54:44.367Z,16.04
2022-10-17T07:57:13.362Z,16.14
2022-10-17T07:59:41.401Z,16.22
2022-10-17T08:02:20.683Z,16.31
2022-10-17T08:04:48.656Z,16.42
2022-10-17T08:07:23.254Z,16.51
2022-10-17T08:09:53.560Z,16.60
2022-10-17T08:12:22.062Z,16.66
2022-10-17T08:14:50.332Z,16.74
2022-10-17T08:17:18.464Z,16.77
2022-10-17T08:19:46.734Z,16.82
2022-10-17T08:22:14.742Z,16.90
2022-10-17T08:24:43.005Z,16.97
2022-10-17T08:27:13.515Z,17.05
2022-10-17T08:29:41.456Z,17.11
2022-10-17T08:32:10.201Z,17.19
2022-10-17T08:34:38.932Z,17.27
2022-10-17T08:37:06.938Z,17.40
2022-10-17T08:39:34.998Z,17.50
2022-10-17T08:42:09.109Z,17.56
2022-10-17T08:44:57.791Z,17.66
2022-10-17T08:47:35.733Z,17.79
2022-10-17T08:50:07.131Z,17.87
2022-10-17T08:52:54.225Z,17.93
2022-10-17T08:55:45.310Z,18.02
2022-10-17T08:58:35.591Z,18.12
2022-10-17T09:01:19.831Z,18.15
2022-10-17T09:04:14.856Z,18.23
2022-10-17T09:07:09.137Z,18.28
2022-10-17T09:09:40.364Z,18.37
2022-10-17T09:12:29.584Z,18.42
2022-10-17T09:15:29.722Z,18.51
2022-10-17T09:18:05.626Z,18.60
2022-10-17T09:20:51.846Z,18.67
2022-10-17T09:23:30.397Z,18.78
2022-10-17T09:26:01.289Z,18.85
2022-10-17T09:28:37.276Z,18.90
2022-10-17T09:31:19.048Z,18.94
2022-10-17T09:33:54.395Z,19.00
2022-10-17T09:36:28.192Z,19.07
2022-10-17T09:38:59.918Z,19.13
2022-10-17T09:41:46.624Z,19.19
2022-10-17T09:44:17.365Z,19.25
2022-10-17T09:47:13.355Z,19.29
2022-10-17T09:49:47.801Z,19.35
2022-10-17T09:52:32.139Z,19.44
2022-10-17T09:55:11.890Z,19.50
2022-10-17T09:57:59.883Z,19.54
2022-10-17T10:00:30.257Z,19.58
2022-10-17T10:03:13.991Z,19.67
2022-10-17T10:05:43.677Z,19.76
2022-10-17T10:08:22.812Z,19.81
2022-10-17T10:10:58.850Z,19.85
2022-10-17T10:13:27.490Z,19.88
2022-10-17T10:16:14.617Z,19.91
2022-10-17T10:18:45.466Z,19.98
2022-10-17T10:21:24.489Z,20.08
2022-10-17T10:24:12.506Z,20.13
2022-10-17T10:26:45.266Z,20.15
2022-10-17T10:29:22.583Z,20.18
2022-10-17T10:31:54.104Z,20.25
2022-10-17T10:34:31.351Z,20.37
2022-10-17T10:37:17.462Z,20.49
2022-10-17T10:39:53.082Z,20.58
2022-10-17T10:42:23.391Z,20.62
2022-10-17T10:44:53.967Z,20.61
2022-10-17T10:47:27.224Z,20.61
2022-10-17T10:50:21.324Z,20.62
2022-10-17T10:53:21.750Z,20.68
2022-10-17T10:56:00.994Z,20.74
2022-10-17T10:58:47.515Z,20.80
2022-10-17T11:01:27.991Z,20.89
2022-10-17T11:04:33.438Z,20.93
2022-10-17T11:07:34.589Z,21.01
2022-10-17T11:10:30.872Z,21.05
2022-10-17T11:13:26.545Z,21.11
2022-10-17T11:16:16.459Z,21.14
2022-10-17T11:18:55.137Z,21.17
2022-10-17T11:21:57.066Z,21.21
2022-10-17T11:24:30.040Z,21.28
2022-10-17T11:27:05.086Z,21.32
2022-10-17T11:29:36.821Z,21.37
2022-10-17T11:32:21.244Z,21.38
2022-10-17T11:34:53.665Z,21.39
2022-10-17T11:37:27.885Z,21.41
2022-10-17T11:40:02.400Z,21.44
2022-10-17T11:42:36.288Z,21.47
2022-10-17T11:45:20.223Z,21.48
2022-10-17T11:47:59.001Z,21.47
2022-10-17T11:53:31.456Z,21.49
2022-10-17T11:56:02.052Z,21.53
2022-10-17T11:58:33.102Z,21.55
2022-10-17T12:01:33.760Z,21.57
2022-10-17T12:04:14.223Z,21.60
2022-10-17T12:07:04.319Z,21.60
2022-10-17T12:09:32.476Z,21.57
2022-10-17T12:12:02.786Z,21.58
2022-10-17T12:14:34.386Z,21.59
2022-10-17T12:17:03.910Z,21.60
2022-10-17T12:19:38.312Z,21.61
2022-10-17T12:22:19.601Z,21.63
2022-10-17T12:24:53.628Z,21.63
2022-10-17T12:27:36.162Z,21.61
2022-10-17T12:30:11.916Z,21.61
2022-10-17T12:33:07.084Z,21.59
2022-10-17T12:35:38.456Z,21.61
2022-10-17T12:38:18.950Z,21.60
2022-10-17T12:40:53.044Z,21.57
2022-10-17T12:43:30.089Z,21.54
2022-10-17T12:46:03.203Z,21.53
2022-10-17T12:48:34.603Z,21.53
2022-10-17T12:51:34.341Z,21.52
2022-10-17T12:54:02.648Z,21.53
2022-10-17T12:56:38.636Z,21.52
2022-10-17T12:59:25.572Z,21.54
2022-10-17T13:02:00.049Z,21.55
2022-10-17T13:04:30.992Z,21.55
2022-10-17T13:07:01.174Z,21.55
2022-10-17T13:09:32.579Z,21.53
2022-10-17T13:12:05.627Z,21.50
2022-10-17T13:14:34.246Z,21.48
2022-10-17T13:17:05.579Z,21.47
2022-10-17T13:19:45.096Z,21.47
2022-10-17T13:22:18.181Z,21.49
2022-10-17T13:24:46.854Z,21.49
2022-10-17T13:27:25.571Z,21.49
2022-10-17T13:29:56.515Z,21.48
2022-10-17T13:32:27.171Z,21.49
2022-10-17T13:35:07.640Z,21.47
2022-10-17T13:37:37.137Z,21.42
2022-10-17T13:40:22.968Z,21.39
2022-10-17T13:42:57.414Z,21.35
2022-10-17T13:45:29.403Z,21.32
2022-10-17T13:48:05.079Z,21.26
2022-10-17T13:50:45.038Z,21.21
2022-10-17T13:53:19.559Z,21.16
2022-10-17T13:56:15.773Z,21.13
2022-10-17T13:58:46.893Z,21.08
2022-10-17T14:01:15.801Z,21.03
2022-10-17T14:03:48.772Z,20.97
2022-10-17T14:06:30.092Z,20.92
2022-10-17T14:09:07.672Z,20.88
2022-10-17T14:11:41.993Z,20.84
2022-10-17T14:14:26.464Z,20.82
2022-10-17T14:16:55.194Z,20.78
2022-10-17T14:19:34.154Z,20.76
2022-10-17T14:22:20.807Z,20.73
2022-10-17T14:24:50.945Z,20.72
2022-10-17T14:27:42.571Z,20.70
2022-10-17T14:30:51.578Z,20.69
2022-10-17T14:33:19.187Z,20.68
2022-10-17T14:35:55.850Z,20.68
2022-10-17T14:38:25.096Z,20.68
2022-10-17T14:41:29.644Z,20.67
2022-10-17T14:44:03.603Z,20.65
2022-10-17T14:46:32.037Z,20.62
2022-10-17T14:49:14.834Z,20.60
2022-10-17T14:52:28.493Z,20.57
2022-10-17T14:54:58.378Z,20.51
2022-10-17T14:57:34.499Z,20.47
2022-10-17T15:00:03.571Z,20.42
2022-10-17T15:02:32.241Z,20.38
2022-10-17T15:05:00.444Z,20.32
2022-10-17T15:07:29.637Z,20.26
2022-10-17T15:09:57.638Z,20.20
2022-10-17T15:12:26.079Z,20.13
2022-10-17T15:14:54.545Z,20.06
2022-10-17T15:17:26.612Z,19.99
2022-10-17T15:19:55.639Z,19.92
2022-10-17T15:22:24.236Z,19.84
2022-10-17T15:24:52.435Z,19.77
2022-10-17T15:27:22.879Z,19.68
2022-10-17T15:29:53.188Z,19.58
2022-10-17T15:32:21.269Z,19.50
2022-10-17T15:34:49.517Z,19.43
2022-10-17T15:37:22.075Z,19.35
2022-10-17T15:39:54.721Z,19.28
2022-10-17T15:42:28.307Z,19.20
2022-10-17T15:44:57.507Z,19.11
2022-10-17T15:47:31.481Z,19.01
2022-10-17T15:50:01.297Z,18.88
2022-10-17T15:52:29.655Z,18.77
2022-10-17T15:54:59.711Z,18.68
2022-10-17T15:57:34.466Z,18.58
2022-10-17T16:00:02.581Z,18.50
2022-10-17T16:02:37.649Z,18.42
2022-10-17T16:05:23.543Z,18.34
2022-10-17T16:07:56.028Z,18.27
2022-10-17T16:10:25.547Z,18.21
2022-10-17T16:12:53.954Z,18.15
2022-10-17T16:15:28.066Z,18.10
2022-10-17T16:18:00.452Z,18.03
2022-10-17T16:20:31.851Z,17.94
2022-10-17T16:23:02.982Z,17.85
2022-10-17T16:25:32.624Z,17.77
2022-10-17T16:28:00.892Z,17.66
2022-10-17T16:30:31.083Z,17.56
2022-10-17T16:32:59.134Z,17.46
2022-10-17T16:35:33.304Z,17.34
2022-10-17T16:38:06.329Z,17.23
2022-10-17T16:40:34.467Z,17.14
2022-10-17T16:43:02.524Z,17.05
2022-10-17T16:45:30.892Z,16.96
2022-10-17T16:47:58.987Z,16.88
2022-10-17T16:50:27.087Z,16.85
2022-10-17T16:52:55.168Z,16.81
2022-10-17T16:55:23.240Z,16.79
2022-10-17T16:57:52.010Z,16.78
2022-10-17T17:00:20.441Z,16.79
2022-10-17T17:02:48.906Z,16.82
2022-10-17T17:05:17.015Z,16.82
2022-10-17T17:07:45.620Z,16.82
2022-10-17T17:10:13.583Z,16.82
2022-10-17T17:12:41.526Z,16.82
2022-10-17T17:15:09.660Z,16.80
2022-10-17T17:17:49.632Z,16.79
2022-10-17T17:20:21.938Z,16.78
2022-10-17T17:22:50.896Z,16.75
2022-10-17T17:25:19.114Z,16.71
2022-10-17T17:27:47.262Z,16.63
2022-10-17T17:30:15.783Z,16.59
2022-10-17T17:32:46.767Z,16.55
2022-10-17T17:35:15.022Z,16.50
2022-10-17T17:37:43.168Z,16.47
2022-10-17T17:40:11.635Z,16.46
2022-10-17T17:42:39.998Z,16.46
2022-10-17T17:45:08.636Z,16.46
2022-10-17T17:47:36.589Z,16.46
2022-10-17T17:50:05.515Z,16.48
2022-10-17T17:52:33.544Z,16.48
2022-10-17T17:55:01.739Z,16.46
2022-10-17T17:57:30.391Z,16.46
2022-10-17T17:59:58.574Z,16.48
2022-10-17T18:02:26.696Z,16.50
2022-10-17T18:04:55.515Z,16.53
2022-10-17T18:07:24.222Z,16.54
2022-10-17T18:09:52.351Z,16.57
2022-10-17T18:12:20.862Z,16.58
2022-10-17T18:14:49.111Z,16.57
2022-10-17T18:17:17.107Z,16.58
2022-10-17T18:19:45.169Z,16.60
2022-10-17T18:22:13.235Z,16.61
2022-10-17T18:24:41.529Z,16.61
2022-10-17T18:27:09.679Z,16.61
2022-10-17T18:29:37.606Z,16.60
2022-10-17T18:32:05.805Z,16.59
2022-10-17T18:34:33.871Z,16.57
2022-10-17T18:37:02.717Z,16.55
2022-10-17T18:39:30.669Z,16.52
2022-10-17T18:41:58.961Z,16.49
2022-10-17T18:44:27.203Z,16.46
2022-10-17T18:46:58.550Z,16.45
2022-10-17T18:49:29.867Z,16.44
2022-10-17T18:51:59.707Z,16.43
2022-10-17T18:54:29.311Z,16.40
2022-10-17T18:56:57.698Z,16.38
2022-10-17T18:59:25.826Z,16.34
2022-10-17T19:01:53.910Z,16.28
2022-10-17T19:04:22.890Z,16.22
2022-10-17T19:06:50.866Z,16.16
2022-10-17T19:09:19.351Z,16.11
2022-10-17T19:11:47.533Z,16.09
2022-10-17T19:14:15.859Z,16.06
2022-10-17T19:16:49.822Z,16.03
2022-10-17T19:19:25.514Z,16.01
2022-10-17T19:21:53.769Z,15.97
2022-10-17T19:24:25.232Z,15.93
2022-10-17T19:26:55.806Z,15.89
2022-10-17T19:29:31.167Z,15.84
2022-10-17T19:32:00.568Z,15.78
2022-10-17T19:34:29.023Z,15.71
2022-10-17T19:36:57.240Z,15.64
2022-10-17T19:39:26.643Z,15.60
2022-10-17T19:41:54.773Z,15.57
2022-10-17T19:44:22.847Z,15.54
2022-10-17T19:46:50.886Z,15.52
2022-10-17T19:49:18.842Z,15.48
2022-10-17T19:51:46.883Z,15.46
2022-10-17T19:54:18.538Z,15.42
2022-10-17T19:56:47.308Z,15.38
2022-10-17T19:59:16.901Z,15.37
2022-10-17T20:01:46.462Z,15.35
2022-10-17T20:04:14.691Z,15.32
2022-10-17T20:06:42.769Z,15.31
2022-10-17T20:09:16.760Z,15.27
2022-10-17T20:11:45.859Z,15.23
2022-10-17T20:14:13.852Z,15.19
2022-10-17T20:16:44.921Z,15.14
2022-10-17T20:19:13.843Z,15.10
2022-10-17T20:21:42.852Z,15.06
2022-10-17T20:24:14.483Z,15.02
2022-10-17T20:26:43.023Z,14.98
2022-10-17T20:29:15.657Z,14.95
2022-10-17T20:31:45.915Z,14.94
2022-10-17T20:34:15.328Z,14.95
2022-10-17T20:36:43.933Z,14.93
2022-10-17T20:39:14.284Z,14.91
2022-10-17T20:41:43.576Z,14.87
2022-10-17T20:44:12.294Z,14.84
2022-10-17T20:46:45.236Z,14.82
2022-10-17T20:49:26.716Z,14.79
2022-10-17T20:51:54.792Z,14.78
2022-10-17T20:54:23.048Z,14.78
2022-10-17T20:56:51.557Z,14.77
2022-10-17T20:59:20.851Z,14.76
2022-10-17T21:01:49.065Z,14.74
2022-10-17T21:07:06.163Z,14.70
2022-10-17T21:09:34.313Z,14.68
2022-10-17T21:12:05.157Z,14.67
2022-10-17T21:14:33.646Z,14.65
2022-10-17T21:17:05.096Z,14.66
2022-10-17T21:19:33.958Z,14.67
2022-10-17T21:22:02.644Z,14.68
2022-10-17T21:24:31.001Z,14.69
2022-10-17T21:26:59.358Z,14.70
2022-10-17T21:29:27.756Z,14.71
2022-10-17T21:31:55.776Z,14.71
2022-10-17T21:34:25.157Z,14.72
2022-10-17T21:36:53.513Z,14.70
2022-10-17T21:39:24.210Z,14.69
2022-10-17T21:41:53.065Z,14.68
2022-10-17T21:44:24.307Z,14.69
2022-10-17T21:46:52.907Z,14.66
2022-10-17T21:49:23.286Z,14.60
2022-10-17T21:51:52.813Z,14.56
2022-10-17T21:54:23.036Z,14.51
2022-10-17T21:56:51.772Z,14.46
2022-10-17T21:59:19.903Z,14.41
2022-10-17T22:01:48.050Z,14.35
2022-10-17T22:04:18.323Z,14.28
2022-10-17T22:06:48.462Z,14.20
2022-10-17T22:09:22.421Z,14.14
2022-10-17T22:11:53.501Z,14.09
2022-10-17T22:14:23.243Z,14.02
2022-10-17T22:16:51.790Z,13.95
2022-10-17T22:19:22.711Z,13.92
2022-10-17T22:21:50.600Z,13.91
2022-10-17T22:26:49.823Z,13.85
2022-10-17T22:29:18.186Z,13.82
2022-10-17T22:31:46.552Z,13.78
2022-10-17T22:34:16.435Z,13.72
2022-10-17T22:36:44.940Z,13.68
2022-10-17T22:39:13.109Z,13.64
2022-10-17T22:41:41.354Z,13.60
2022-10-17T22:44:09.481Z,13.58
2022-10-17T22:46:37.684Z,13.61
2022-10-17T22:49:06.036Z,13.66
2022-10-17T22:51:34.116Z,13.68
2022-10-17T22:54:02.432Z,13.68
2022-10-17T22:56:30.659Z,13.70
2022-10-17T22:58:58.641Z,13.71
2022-10-17T23:01:26.882Z,13.71
2022-10-17T23:03:55.408Z,13.71
2022-10-17T23:06:23.623Z,13.72
2022-10-17T23:08:52.403Z,13.76
2022-10-17T23:11:21.087Z,13.78
2022-10-17T23:13:49.244Z,13.78
2022-10-17T23:16:17.526Z,13.81
2022-10-17T23:18:45.836Z,13.84
2022-10-17T23:21:13.815Z,13.86
2022-10-17T23:23:41.923Z,13.88
2022-10-17T23:26:13.168Z,13.89
2022-10-17T23:28:42.775Z,13.90
2022-10-17T23:31:16.939Z,13.89
2022-10-17T23:33:46.727Z,13.90
2022-10-17T23:36:17.985Z,13.90
2022-10-17T23:38:47.127Z,13.89
2022-10-17T23:41:15.736Z,13.88
2022-10-17T23:43:44.636Z,13.89
2022-10-17T23:46:12.915Z,13.90
2022-10-17T23:48:41.327Z,13.89
2022-10-17T23:51:10.788Z,13.90
2022-10-17T23:53:39.514Z,13.91
2022-10-17T23:56:08.710Z,13.89
2022-10-17T23:58:37.668Z,13.86
